Time;durP1;ratioP1;P1;durP2;ratioP2;P2;SDS_P1;SDS_P2;PMS_P1;PMS_P2;Temp;Humidity;BMP_temperature;BMP_pressure;BME280_temperature;BME280_humidity;BME280_pressure;Samples;Min_cycle;Max_cycle;Signal;HPM_P1;HPM_P2
2023/05/15 00:04:06;;;;;;;0.47;0.32;;;;;;;17.04;100.00;101450.56;10437142;28;20098;-80
2023/05/15 00:09:08;;;;;;;0.40;0.30;;;;;;;17.28;100.00;101441.19;10415505;28;20050;-80
2023/05/15 00:14:10;;;;;;;0.75;0.52;;;;;;;17.34;100.00;101433.44;10433421;28;20095;-81
2023/05/15 00:19:12;;;;;;;0.95;0.63;;;;;;;17.63;100.00;101432.72;10437561;28;20394;-82
2023/05/15 00:24:13;;;;;;;0.95;0.80;;;;;;;17.53;100.00;101418.78;10437818;28;20511;-81
2023/05/15 00:29:15;;;;;;;1.65;0.95;;;;;;;17.69;100.00;101419.72;10438045;28;20048;-82
2023/05/15 00:34:16;;;;;;;1.27;0.90;;;;;;;17.84;100.00;101412.81;10420249;28;20075;-82
2023/05/15 00:39:18;;;;;;;0.35;0.28;;;;;;;17.71;100.00;101417.13;10434995;28;20045;-81
2023/05/15 00:44:20;;;;;;;0.25;0.25;;;;;;;17.43;100.00;101428.28;10434805;28;20041;-81
2023/05/15 00:49:23;;;;;;;0.50;0.50;;;;;;;17.44;100.00;101421.31;10434427;28;20051;-81
2023/05/15 00:54:25;;;;;;;0.22;0.22;;;;;;;16.26;100.00;101425.53;10435117;28;20037;-81
2023/05/15 00:59:28;;;;;;;0.77;0.73;;;;;;;16.38;100.00;101422.22;10435706;28;20053;-83
2023/05/15 01:04:30;;;;;;;1.58;1.13;;;;;;;16.38;100.00;101422.22;10451208;28;20060;-81
2023/05/15 01:09:35;;;;;;;8.30;1.58;;;;;;;15.93;100.00;101418.25;10429002;28;20049;-83
2023/05/15 01:14:36;;;;;;;1.75;0.68;;;;;;;16.38;100.00;101414.41;10426996;28;20049;-82
2023/05/15 01:19:41;;;;;;;1.27;0.70;;;;;;;17.08;100.00;101410.72;10432905;28;20049;-82
2023/05/15 01:25:08;;;;;;;5.70;0.82;;;;;;;16.11;100.00;101412.38;10434254;28;20049;-82
2023/05/15 01:30:13;;;;;;;0.50;0.40;;;;;;;15.88;100.00;101404.34;10432518;28;20048;-82
2023/05/15 01:35:22;;;;;;;0.32;0.25;;;;;;;16.18;100.00;101398.59;10432842;28;20037;-82
2023/05/15 01:40:26;;;;;;;1.55;0.88;;;;;;;16.44;100.00;101398.84;10432718;28;20519;-82
2023/05/15 01:45:30;;;;;;;2.47;0.60;;;;;;;16.06;100.00;101396.72;10415339;28;20037;-82
2023/05/15 01:50:34;;;;;;;2.45;1.02;;;;;;;16.32;100.00;101398.75;10420746;28;20577;-81
2023/05/15 01:55:37;;;;;;;2.05;1.13;;;;;;;16.45;100.00;101392.81;10432832;28;20472;-82
2023/05/15 02:00:41;;;;;;;0.43;0.43;;;;;;;15.70;100.00;101400.59;10432093;28;20059;-83
2023/05/15 02:05:44;;;;;;;0.55;0.55;;;;;;;16.23;100.00;101401.25;10431838;28;20045;-80
2023/05/15 02:10:49;;;;;;;0.82;0.70;;;;;;;16.08;100.00;101391.56;10432057;28;20132;-81
2023/05/15 02:15:53;;;;;;;0.88;0.70;;;;;;;15.70;100.00;101395.41;10423068;28;20165;-81
2023/05/15 02:20:55;;;;;;;0.40;0.40;;;;;;;15.90;100.00;101397.44;10415619;28;20049;-82
2023/05/15 02:25:59;;;;;;;1.70;1.30;;;;;;;15.89;100.00;101401.75;10420930;28;20095;-82
2023/05/15 02:31:10;;;;;;;0.82;0.47;;;;;;;15.67;100.00;101398.00;10434365;28;20048;-82
2023/05/15 02:36:19;;;;;;;0.40;0.40;;;;;;;16.03;100.00;101396.72;10408088;28;20041;-82
2023/05/15 02:41:24;;;;;;;0.75;0.57;;;;;;;15.73;100.00;101399.78;10430356;28;20130;-82
2023/05/15 02:46:27;;;;;;;2.50;1.30;;;;;;;15.13;100.00;101400.72;10430806;28;20586;-83
2023/05/15 02:51:29;;;;;;;1.45;0.95;;;;;;;15.62;100.00;101394.44;10408496;28;20048;-82
2023/05/15 02:56:31;;;;;;;0.82;0.77;;;;;;;15.39;100.00;101395.91;10414079;28;20409;-82
2023/05/15 03:01:32;;;;;;;0.28;0.28;;;;;;;15.26;100.00;101401.78;10414133;28;20063;-82
2023/05/15 03:06:34;;;;;;;1.67;0.30;;;;;;;15.55;100.00;101386.56;10414206;28;20045;-82
2023/05/15 03:11:36;;;;;;;3.00;1.00;;;;;;;14.76;100.00;101407.91;10428435;28;20044;-82
2023/05/15 03:16:37;;;;;;;0.77;0.73;;;;;;;15.59;100.00;101391.81;10423236;28;20052;-82
2023/05/15 03:21:39;;;;;;;0.93;0.65;;;;;;;14.82;100.00;101400.22;10429804;28;20048;-82
2023/05/15 03:26:41;;;;;;;0.55;0.38;;;;;;;15.22;100.00;101387.88;10412851;28;20041;-80
2023/05/15 03:31:42;;;;;;;0.28;0.25;;;;;;;15.61;100.00;101384.91;10413848;28;20503;-80
2023/05/15 03:36:44;;;;;;;0.80;0.55;;;;;;;15.53;100.00;101383.06;10430441;28;20049;-80
2023/05/15 03:41:46;;;;;;;0.60;0.55;;;;;;;15.53;100.00;101372.69;10430317;28;20066;-79
2023/05/15 03:46:47;;;;;;;1.10;0.70;;;;;;;14.74;100.00;101379.34;10446596;28;20041;-79
2023/05/15 03:51:51;;;;;;;0.50;0.43;;;;;;;15.42;100.00;101366.50;10429862;28;20480;-79
2023/05/15 03:56:53;;;;;;;1.48;0.52;;;;;;;15.86;100.00;101366.22;10413529;28;20048;-80
2023/05/15 04:01:54;;;;;;;3.13;1.13;;;;;;;15.35;100.00;101373.31;10413500;28;20049;-80
2023/05/15 04:07:05;;;;;;;6.30;1.25;;;;;;;14.63;100.00;101391.22;10423448;28;20047;-79
2023/05/15 04:12:08;;;;;;;2.08;0.52;;;;;;;15.26;100.00;101399.19;10445020;28;20045;-80
2023/05/15 04:17:09;;;;;;;1.70;0.80;;;;;;;15.13;100.00;101394.63;10434475;28;20110;-79
2023/05/15 04:22:11;;;;;;;0.98;0.77;;;;;;;15.05;100.00;101391.94;10429523;28;20041;-80
2023/05/15 04:27:13;;;;;;;1.17;0.80;;;;;;;15.27;100.00;101393.09;10435773;28;20073;-80
2023/05/15 04:32:14;;;;;;;0.82;0.82;;;;;;;14.77;100.00;101396.69;10430213;28;20132;-80
2023/05/15 04:37:16;;;;;;;1.02;0.80;;;;;;;14.23;100.00;101390.50;10429840;28;20048;-79
2023/05/15 04:42:17;;;;;;;1.63;1.15;;;;;;;14.07;100.00;101392.81;10435548;28;20041;-80
2023/05/15 04:47:19;;;;;;;0.75;0.68;;;;;;;14.64;100.00;101398.16;10436090;28;20043;-80
2023/05/15 04:52:22;;;;;;;2.10;1.33;;;;;;;14.73;100.00;101403.53;10436459;28;20048;-80
2023/05/15 04:57:24;;;;;;;0.43;0.43;;;;;;;14.89;100.00;101407.25;10452582;28;20071;-80
2023/05/15 05:02:26;;;;;;;1.17;0.85;;;;;;;14.90;100.00;101401.22;10434931;28;20041;-80
2023/05/15 05:07:28;;;;;;;1.25;0.90;;;;;;;15.25;100.00;101402.63;10434692;28;20385;-80
2023/05/15 05:12:30;;;;;;;1.33;1.13;;;;;;;14.84;100.00;101405.44;10435732;28;20114;-80
2023/05/15 05:17:31;;;;;;;0.93;0.75;;;;;;;15.38;100.00;101403.63;10417624;28;20072;-80
2023/05/15 05:22:33;;;;;;;2.10;0.95;;;;;;;14.85;100.00;101402.88;10434752;28;20127;-81
2023/05/15 05:27:34;;;;;;;6.43;0.80;;;;;;;14.82;100.00;101410.59;10418342;28;20083;-80
2023/05/15 05:32:36;;;;;;;2.17;0.95;;;;;;;15.13;100.00;101417.97;10420912;28;20052;-81
2023/05/15 05:37:38;;;;;;;1.52;1.42;;;;;;;15.06;100.00;101419.63;10452132;28;20060;-81
2023/05/15 05:42:42;;;;;;;1.02;0.90;;;;;;;15.58;100.00;101421.25;10430581;28;20040;-81
2023/05/15 05:47:43;;;;;;;2.25;1.40;;;;;;;15.95;100.00;101416.53;10431434;28;20095;-80
2023/05/15 05:52:45;;;;;;;6.70;1.00;;;;;;;15.61;100.00;101439.44;10420430;28;20139;-81
2023/05/15 05:57:46;;;;;;;1.52;1.13;;;;;;;15.39;100.00;101436.53;10433203;28;20056;-81
2023/05/15 06:02:54;;;;;;;1.13;0.98;;;;;;;15.30;100.00;101444.22;10433430;28;20080;-80
2023/05/15 06:07:56;;;;;;;2.10;1.17;;;;;;;15.74;100.00;101448.28;10432804;28;20060;-80
2023/05/15 06:12:58;;;;;;;2.45;1.15;;;;;;;16.80;100.00;101435.59;10416624;28;20049;-81
2023/05/15 06:17:59;;;;;;;1.38;0.57;;;;;;;15.71;100.00;101444.78;10425701;28;20484;-80
2023/05/15 06:23:01;;;;;;;1.92;0.95;;;;;;;15.98;100.00;101448.63;10417140;28;20053;-82
2023/05/15 06:28:03;;;;;;;0.45;0.38;;;;;;;16.01;100.00;101443.44;10434362;28;20102;-81
2023/05/15 06:33:05;;;;;;;4.35;1.42;;;;;;;15.30;100.00;101450.28;10432616;28;20075;-81
2023/05/15 06:38:07;;;;;;;2.33;0.95;;;;;;;16.24;100.00;101447.19;10450722;28;20041;-81
2023/05/15 06:43:08;;;;;;;1.40;0.93;;;;;;;15.83;100.00;101438.91;10433759;28;20440;-81
2023/05/15 06:48:10;;;;;;;3.10;0.60;;;;;;;16.45;100.00;101434.41;10451782;28;20036;-81
2023/05/15 06:53:11;;;;;;;0.70;0.50;;;;;;;16.91;100.00;101435.69;10423892;28;20512;-82
2023/05/15 06:58:16;;;;;;;3.35;1.05;;;;;;;16.47;100.00;101424.91;10433146;28;20049;-81
2023/05/15 07:03:18;;;;;;;2.33;1.10;;;;;;;16.73;100.00;101424.25;10433451;28;20879;-81
2023/05/15 07:08:20;;;;;;;2.63;1.75;;;;;;;17.56;100.00;101420.53;10433628;28;20416;-80
2023/05/15 07:13:22;;;;;;;0.63;0.45;;;;;;;17.89;100.00;101421.56;10428339;28;20051;-80
2023/05/15 07:18:24;;;;;;;2.00;1.23;;;;;;;18.87;100.00;101420.88;10429960;28;20049;-80
2023/05/15 07:23:25;;;;;;;1.15;0.70;;;;;;;17.64;100.00;101426.66;10430987;28;20143;-80
2023/05/15 07:28:27;;;;;;;0.63;0.63;;;;;;;19.14;100.00;101418.28;10432954;28;20439;-81
2023/05/15 07:33:29;;;;;;;0.98;0.70;;;;;;;18.90;100.00;101419.16;10433429;28;20044;-80
2023/05/15 07:38:31;;;;;;;1.05;0.60;;;;;;;19.40;100.00;101409.53;10442941;28;20043;-80
2023/05/15 07:43:32;;;;;;;1.75;0.85;;;;;;;19.23;100.00;101413.03;10425751;28;20446;-79
2023/05/15 07:48:34;;;;;;;2.00;1.35;;;;;;;19.70;100.00;101405.03;10414566;28;20116;-81
2023/05/15 07:53:35;;;;;;;1.15;0.90;;;;;;;19.38;100.00;101406.03;10413664;28;20106;-80
2023/05/15 07:58:37;;;;;;;1.38;0.75;;;;;;;19.99;100.00;101407.56;10438749;28;20045;-80
2023/05/15 08:03:39;;;;;;;1.52;0.98;;;;;;;19.85;100.00;101405.00;10439773;28;20087;-80
2023/05/15 08:08:41;;;;;;;1.77;1.10;;;;;;;19.62;100.00;101398.09;10451538;28;20045;-79
2023/05/15 08:13:42;;;;;;;1.58;0.90;;;;;;;20.20;100.00;101403.97;10455065;28;20091;-80
2023/05/15 08:18:44;;;;;;;0.75;0.68;;;;;;;21.51;100.00;101388.00;10439156;28;20063;-80
2023/05/15 08:23:46;;;;;;;0.82;0.75;;;;;;;22.55;100.00;101389.19;10434824;28;20053;-79
2023/05/15 08:28:48;;;;;;;0.28;0.28;;;;;;;21.20;100.00;101394.44;10427901;28;20515;-81
2023/05/15 08:33:49;;;;;;;1.08;0.85;;;;;;;21.65;99.14;101382.59;10436160;28;20037;-81
2023/05/15 08:38:51;;;;;;;0.47;0.47;;;;;;;22.29;100.00;101379.97;10447646;28;20044;-82
2023/05/15 08:43:54;;;;;;;1.27;1.13;;;;;;;20.82;100.00;101384.34;10430984;28;20116;-81
2023/05/15 08:48:58;;;;;;;3.60;1.15;;;;;;;22.36;100.00;101373.72;10433987;28;20060;-81
2023/05/15 08:54:00;;;;;;;0.85;0.65;;;;;;;21.79;98.36;101369.31;10437403;28;20049;-80
2023/05/15 08:59:02;;;;;;;2.00;1.38;;;;;;;22.52;99.53;101373.53;10454558;28;20079;-80
2023/05/15 09:04:04;;;;;;;0.52;0.25;;;;;;;23.64;91.27;101367.06;10441269;28;20390;-80
2023/05/15 09:09:08;;;;;;;1.00;0.90;;;;;;;22.96;91.75;101364.84;10444970;28;20048;-82
2023/05/15 09:14:10;;;;;;;1.05;0.38;;;;;;;21.95;98.57;101372.56;10427132;28;20139;-79
2023/05/15 09:19:14;;;;;;;1.00;0.90;;;;;;;23.23;96.35;101364.38;10414568;28;20044;-80
2023/05/15 09:24:24;;;;;;;0.88;0.57;;;;;;;23.75;95.74;101354.56;10436006;28;20094;-79
2023/05/15 09:29:27;;;;;;;0.98;0.90;;;;;;;24.42;95.93;101371.44;10424989;28;20609;-80
2023/05/15 09:34:34;;;;;;;1.85;1.20;;;;;;;24.04;93.75;101367.06;10440623;28;20041;-81
2023/05/15 09:39:42;;;;;;;1.98;0.95;;;;;;;23.95;94.17;101362.00;10435840;28;20041;-80
2023/05/15 09:44:45;;;;;;;1.25;0.90;;;;;;;22.40;94.31;101378.06;10407442;28;20049;-79
2023/05/15 09:49:46;;;;;;;4.18;0.90;;;;;;;23.21;91.93;101363.53;10436243;28;20393;-81
2023/05/15 09:54:48;;;;;;;0.73;0.73;;;;;;;24.53;92.24;101365.00;10417637;28;20048;-79
2023/05/15 09:59:51;;;;;;;2.28;1.17;;;;;;;23.29;93.12;101348.47;10434421;28;20136;-81
2023/05/15 10:04:55;;;;;;;1.65;1.15;;;;;;;23.04;86.55;101362.09;10426551;28;20079;-81
2023/05/15 10:09:57;;;;;;;0.80;0.70;;;;;;;24.47;88.16;101351.13;10415940;28;20078;-83
2023/05/15 10:15:00;;;;;;;0.90;0.75;;;;;;;24.10;80.89;101357.28;10431466;28;20338;-79
2023/05/15 10:20:05;;;;;;;1.23;0.68;;;;;;;24.52;84.48;101349.25;10432966;28;20460;-81
2023/05/15 10:25:29;;;;;;;0.35;0.35;;;;;;;25.17;82.39;101339.63;10420965;28;20060;-81
2023/05/15 10:30:31;;;;;;;1.02;0.75;;;;;;;23.98;90.03;101351.41;10427702;28;20122;-81
2023/05/15 10:35:33;;;;;;;0.55;0.35;;;;;;;23.76;91.64;101348.34;10418636;28;20494;-81
2023/05/15 10:40:36;;;;;;;0.90;0.70;;;;;;;23.91;93.12;101336.63;10452512;28;20056;-81
2023/05/15 10:45:38;;;;;;;0.85;0.60;;;;;;;25.40;81.06;101335.50;10433501;28;20415;-82
2023/05/15 10:50:40;;;;;;;0.68;0.55;;;;;;;25.45;83.63;101338.88;10433127;28;20084;-81
2023/05/15 10:55:44;;;;;;;0.57;0.52;;;;;;;26.60;83.19;101326.44;10432270;28;20124;-80
2023/05/15 11:00:46;;;;;;;0.90;0.80;;;;;;;25.35;84.48;101328.53;10417167;28;20535;-82
2023/05/15 11:06:14;;;;;;;0.22;0.22;;;;;;;25.17;82.87;101329.09;10432982;28;20056;-82
2023/05/15 11:11:57;;;;;;;0.10;0.10;;;;;;;25.15;82.15;101317.72;10451753;28;20041;-81
2023/05/15 11:17:02;;;;;;;0.32;0.32;;;;;;;25.26;88.69;101318.28;10416861;28;20314;-81
2023/05/15 11:22:07;;;;;;;5.35;1.10;;;;;;;25.72;83.22;101304.66;10432809;28;20569;-81
2023/05/15 11:27:11;;;;;;;1.95;0.82;;;;;;;24.33;94.57;101314.63;10424366;28;20049;-80
2023/05/15 11:32:41;;;;;;;0.10;0.10;;;;;;;24.77;85.94;101307.34;10434734;28;20155;-80
2023/05/15 11:38:02;;;;;;;0.75;0.50;;;;;;;26.34;83.27;101294.75;10441602;28;20489;-80
2023/05/15 11:43:19;;;;;;;0.60;0.40;;;;;;;24.71;90.61;101300.47;10442046;28;20467;-80
2023/05/15 11:48:23;;;;;;;0.40;0.40;;;;;;;24.01;89.00;101298.72;10453725;28;20036;-81
2023/05/15 11:53:25;;;;;;;0.70;0.57;;;;;;;25.42;86.73;101275.69;10426196;28;20474;-80
2023/05/15 11:58:27;;;;;;;0.73;0.40;;;;;;;24.85;81.97;101288.69;10457900;28;20037;-80
2023/05/15 12:03:34;;;;;;;1.50;0.45;;;;;;;24.33;84.66;101286.50;10458027;28;20048;-82
2023/05/15 12:08:37;;;;;;;0.45;0.40;;;;;;;24.25;87.78;101285.84;10438865;28;20045;-80
2023/05/15 12:13:38;;;;;;;0.77;0.55;;;;;;;23.38;89.96;101287.81;10441568;28;20200;-80
2023/05/15 12:18:40;;;;;;;1.63;0.63;;;;;;;22.72;91.12;101291.72;10458912;28;20498;-80
2023/05/15 12:23:50;;;;;;;1.77;1.08;;;;;;;22.26;93.25;101303.88;10442252;28;20060;-80
2023/05/15 12:29:08;;;;;;;0.43;0.43;;;;;;;22.54;93.00;101290.31;10438312;28;20033;-78
2023/05/15 12:34:10;;;;;;;0.55;0.43;;;;;;;22.39;89.89;101300.19;10435255;28;20439;-81
2023/05/15 12:39:11;;;;;;;1.08;0.98;;;;;;;22.91;87.12;101289.63;10421606;28;20488;-82
2023/05/15 12:44:16;;;;;;;0.22;0.20;;;;;;;22.91;86.49;101297.50;10414164;28;20052;-82
2023/05/15 12:49:22;;;;;;;1.13;0.70;;;;;;;22.97;88.37;101292.16;10416980;28;20116;-81
2023/05/15 12:54:24;;;;;;;0.73;0.73;;;;;;;22.41;86.64;101298.41;10437642;28;20496;-82
2023/05/15 12:59:26;;;;;;;0.40;0.40;;;;;;;21.74;91.63;101308.19;10452782;28;20049;-82
2023/05/15 13:04:27;;;;;;;0.73;0.43;;;;;;;22.53;91.53;101302.59;10434852;28;20049;-80
2023/05/15 13:09:29;;;;;;;1.02;0.20;;;;;;;22.65;93.67;101312.00;10442217;28;20385;-81
2023/05/15 13:14:34;;;;;;;0.65;0.57;;;;;;;22.47;94.73;101308.81;10415437;28;20514;-83
2023/05/15 13:19:35;;;;;;;0.30;0.30;;;;;;;22.95;91.55;101299.19;10425201;28;20045;-80
2023/05/15 13:24:37;;;;;;;0.60;0.55;;;;;;;22.31;91.26;101309.91;10439802;28;20044;-80
2023/05/15 13:29:39;;;;;;;0.38;0.38;;;;;;;23.21;91.16;101303.97;10440262;28;20033;-80
2023/05/15 13:34:41;;;;;;;0.28;0.20;;;;;;;22.89;90.18;101304.56;10438170;28;20086;-80
2023/05/15 13:39:42;;;;;;;0.70;0.25;;;;;;;23.03;93.30;101313.06;10431352;28;20050;-81
2023/05/15 13:44:44;;;;;;;0.55;0.40;;;;;;;22.43;97.22;101322.91;10449828;28;20492;-82
2023/05/15 13:49:46;;;;;;;0.93;0.60;;;;;;;22.63;100.00;101313.78;10408722;28;20081;-79
2023/05/15 13:54:47;;;;;;;0.70;0.60;;;;;;;22.48;100.00;101325.44;10431352;28;20049;-81
2023/05/15 13:59:52;;;;;;;1.40;0.80;;;;;;;22.28;100.00;101334.47;10455018;28;20079;-81
2023/05/15 14:04:53;;;;;;;1.73;1.05;;;;;;;22.10;100.00;101325.13;10433339;28;20489;-80
2023/05/15 14:09:55;;;;;;;4.00;1.17;;;;;;;23.13;98.70;101309.31;10413094;28;20033;-81
2023/05/15 14:14:57;;;;;;;0.38;0.28;;;;;;;23.50;98.87;101322.63;10419808;28;20118;-80
2023/05/15 14:19:58;;;;;;;1.73;0.52;;;;;;;23.49;99.40;101313.03;10446833;28;20048;-79
2023/05/15 14:25:02;;;;;;;0.80;0.80;;;;;;;22.14;100.00;101324.22;10427189;28;20073;-79
2023/05/15 14:30:04;;;;;;;1.52;0.85;;;;;;;22.82;100.00;101325.69;10441560;28;20067;-79
2023/05/15 14:35:06;;;;;;;3.85;0.95;;;;;;;22.43;99.71;101329.88;10435361;28;20053;-80
2023/05/15 14:40:08;;;;;;;1.50;0.75;;;;;;;22.27;100.00;101331.88;10421665;28;20052;-81
2023/05/15 14:45:10;;;;;;;1.05;0.75;;;;;;;22.63;100.00;101319.94;10444322;28;20059;-80
2023/05/15 14:50:12;;;;;;;3.10;1.25;;;;;;;21.90;100.00;101328.03;10439149;28;20135;-82
2023/05/15 14:55:13;;;;;;;0.55;0.38;;;;;;;21.56;100.00;101329.34;10439093;28;20048;-81
2023/05/15 15:00:18;;;;;;;1.33;0.45;;;;;;;21.87;100.00;101334.22;10434514;28;20049;-80
2023/05/15 15:05:20;;;;;;;0.88;0.60;;;;;;;20.99;100.00;101334.41;10413843;28;20053;-82
2023/05/15 15:10:21;;;;;;;1.38;0.88;;;;;;;21.55;100.00;101338.13;10420539;28;20053;-79
2023/05/15 15:15:23;;;;;;;1.48;0.73;;;;;;;21.46;100.00;101338.25;10438135;28;20094;-80
2023/05/15 15:20:26;;;;;;;1.40;0.57;;;;;;;20.73;100.00;101346.03;10427753;28;20134;-81
2023/05/15 15:25:47;;;;;;;1.70;0.65;;;;;;;20.57;100.00;101353.09;10421846;28;20037;-81
2023/05/15 15:30:49;;;;;;;0.80;0.60;;;;;;;20.58;100.00;101347.88;10439161;28;20045;-79
2023/05/15 15:35:51;;;;;;;0.52;0.40;;;;;;;20.43;100.00;101354.09;10438375;28;20519;-79
2023/05/15 15:40:53;;;;;;;1.63;0.80;;;;;;;20.24;100.00;101348.13;10435165;28;20407;-80
2023/05/15 15:45:55;;;;;;;1.10;0.43;;;;;;;21.23;100.00;101347.25;10438648;28;20045;-81
2023/05/15 15:50:56;;;;;;;0.30;0.22;;;;;;;21.72;100.00;101347.53;10435420;28;20049;-80
2023/05/15 15:55:58;;;;;;;0.60;0.57;;;;;;;21.33;100.00;101355.84;10447369;28;20076;-81
2023/05/15 16:01:01;;;;;;;0.63;0.63;;;;;;;21.18;100.00;101358.66;10437829;28;20033;-80
2023/05/15 16:06:03;;;;;;;2.08;0.95;;;;;;;20.48;100.00;101351.44;10421146;28;20041;-80
2023/05/15 16:11:05;;;;;;;0.77;0.68;;;;;;;20.63;100.00;101360.03;10446502;28;20080;-80
2023/05/15 16:16:07;;;;;;;1.17;0.98;;;;;;;20.41;100.00;101360.22;10434217;28;20501;-82
2023/05/15 16:21:08;;;;;;;0.98;0.55;;;;;;;21.78;100.00;101362.31;10440485;28;20045;-80
2023/05/15 16:26:10;;;;;;;1.15;0.80;;;;;;;20.92;100.00;101371.13;10439293;28;20064;-79
2023/05/15 16:31:12;;;;;;;0.82;0.50;;;;;;;20.32;100.00;101365.50;10423650;28;20094;-79
2023/05/15 16:36:13;;;;;;;1.10;0.55;;;;;;;20.43;100.00;101364.56;10438738;28;20381;-79
2023/05/15 16:41:15;;;;;;;0.68;0.52;;;;;;;20.51;100.00;101363.63;10437185;28;20132;-79
2023/05/15 16:46:17;;;;;;;1.27;0.85;;;;;;;20.39;100.00;101377.66;10437310;28;20037;-79
2023/05/15 16:51:18;;;;;;;2.10;1.27;;;;;;;19.64;100.00;101388.53;10457355;28;20063;-79
2023/05/15 16:56:20;;;;;;;1.05;0.82;;;;;;;19.77;100.00;101393.72;10439363;28;20053;-78
2023/05/15 17:01:22;;;;;;;0.28;0.22;;;;;;;20.00;100.00;101400.56;10437376;28;20037;-79
2023/05/15 17:06:24;;;;;;;0.65;0.65;;;;;;;18.74;100.00;101418.25;10433021;28;20132;-78
2023/05/15 17:11:25;;;;;;;1.55;0.55;;;;;;;19.40;100.00;101404.31;10431393;28;20049;-80
2023/05/15 17:16:28;;;;;;;1.23;0.68;;;;;;;19.43;100.00;101414.72;10429912;28;20064;-81
2023/05/15 17:21:30;;;;;;;0.65;0.38;;;;;;;19.29;100.00;101414.75;10431951;28;20045;-78
2023/05/15 17:26:32;;;;;;;3.25;0.88;;;;;;;18.70;100.00;101426.09;10451428;28;20461;-80
2023/05/15 17:31:35;;;;;;;1.13;1.02;;;;;;;18.52;100.00;101421.75;10437868;28;20053;-80
2023/05/15 17:36:37;;;;;;;0.65;0.55;;;;;;;18.39;100.00;101433.03;10437372;28;20033;-84
2023/05/15 17:41:38;;;;;;;0.40;0.30;;;;;;;18.18;100.00;101433.84;10436277;28;20063;-84
2023/05/15 17:46:40;;;;;;;0.88;0.80;;;;;;;18.54;100.00;101440.84;10435315;28;20463;-82
2023/05/15 17:51:42;;;;;;;0.47;0.47;;;;;;;18.03;100.00;101439.88;10436173;28;20095;-81
2023/05/15 17:56:43;;;;;;;0.52;0.38;;;;;;;18.65;100.00;101445.22;10417888;28;20049;-83
2023/05/15 18:01:45;;;;;;;0.00;0.00;;;;;;;18.36;100.00;101457.34;10434107;28;20072;-83
2023/05/15 18:06:47;;;;;;;0.30;0.25;;;;;;;18.31;100.00;101464.31;10435228;28;20045;-82
2023/05/15 18:11:49;;;;;;;0.30;0.25;;;;;;;18.55;100.00;101457.41;10433529;28;20053;-83
2023/05/15 18:16:50;;;;;;;0.73;0.52;;;;;;;17.77;100.00;101461.47;10453839;28;20590;-79
2023/05/15 18:21:52;;;;;;;0.30;0.25;;;;;;;17.75;100.00;101469.28;10435400;28;20041;-80
2023/05/15 18:26:53;;;;;;;0.10;0.10;;;;;;;18.44;100.00;101461.72;10413754;28;20053;-80
2023/05/15 18:31:55;;;;;;;0.00;0.00;;;;;;;18.44;100.00;101479.97;10420109;28;20049;-80
2023/05/15 18:36:57;;;;;;;0.13;0.10;;;;;;;18.31;100.00;101487.78;10416538;28;20041;-80
2023/05/15 18:41:59;;;;;;;0.80;0.28;;;;;;;17.99;100.00;101492.88;10433622;28;20057;-80
2023/05/15 18:47:01;;;;;;;0.10;0.10;;;;;;;18.16;100.00;101495.53;10410452;28;20515;-80
2023/05/15 18:52:03;;;;;;;0.30;0.20;;;;;;;17.79;100.00;101503.16;10429791;28;20407;-80
2023/05/15 18:57:05;;;;;;;0.40;0.30;;;;;;;18.19;100.00;101498.19;10432232;28;20053;-80
2023/05/15 19:02:08;;;;;;;0.00;0.00;;;;;;;18.14;100.00;101510.31;10426057;28;20152;-81
2023/05/15 19:07:12;;;;;;;0.20;0.15;;;;;;;17.58;100.00;101520.41;10450871;28;20044;-80
2023/05/15 19:12:14;;;;;;;1.10;0.57;;;;;;;17.93;100.00;101522.34;10424816;28;20576;-80
2023/05/15 19:17:15;;;;;;;0.00;0.00;;;;;;;18.06;100.00;101518.97;10449450;28;20037;-81
2023/05/15 19:22:17;;;;;;;0.22;0.20;;;;;;;17.57;100.00;101526.47;10430321;28;20045;-80
2023/05/15 19:27:19;;;;;;;0.40;0.30;;;;;;;17.86;100.00;101523.19;10434027;28;20515;-81
2023/05/15 19:32:20;;;;;;;0.20;0.10;;;;;;;17.73;100.00;101524.84;10396519;28;20052;-80
2023/05/15 19:37:22;;;;;;;0.13;0.13;;;;;;;17.91;100.00;101521.47;10414972;28;20045;-81
2023/05/15 19:42:25;;;;;;;0.25;0.20;;;;;;;17.47;100.00;101537.69;10430578;28;20048;-81
2023/05/15 19:47:26;;;;;;;0.45;0.17;;;;;;;17.35;100.00;101541.94;10431560;28;20041;-80
2023/05/15 19:52:28;;;;;;;0.10;0.10;;;;;;;17.43;100.00;101547.22;10414601;28;20794;-80
2023/05/15 19:57:30;;;;;;;1.08;0.50;;;;;;;17.62;100.00;101549.97;10454820;28;20095;-80
2023/05/15 20:02:31;;;;;;;0.55;0.47;;;;;;;16.78;100.00;101562.22;10429398;28;20103;-80
2023/05/15 20:07:33;;;;;;;1.35;0.38;;;;;;;16.39;100.00;101579.09;10440272;28;20483;-80
2023/05/15 20:12:35;;;;;;;1.05;0.28;;;;;;;16.25;100.00;101586.72;10464892;28;20106;-81
2023/05/15 20:17:36;;;;;;;0.77;0.52;;;;;;;15.93;100.00;101595.84;10437912;28;20037;-80
2023/05/15 20:22:42;;;;;;;2.10;1.33;;;;;;;16.61;100.00;101595.84;10436956;28;20041;-80
2023/05/15 20:27:44;;;;;;;1.88;0.90;;;;;;;16.39;100.00;101606.00;10421665;28;20040;-81
2023/05/15 20:32:45;;;;;;;2.22;1.17;;;;;;;16.13;100.00;101603.88;10437590;28;20053;-80
2023/05/15 20:37:47;;;;;;;2.38;0.88;;;;;;;15.99;100.00;101606.31;10435263;28;20045;-80
2023/05/15 20:42:50;;;;;;;1.08;0.45;;;;;;;15.70;100.00;101611.00;10438589;28;20106;-80
2023/05/15 20:47:51;;;;;;;2.30;1.45;;;;;;;16.04;100.00;101613.28;10433963;28;20060;-79
2023/05/15 20:52:53;;;;;;;2.63;1.40;;;;;;;15.85;100.00;101623.41;10448856;28;20033;-79
2023/05/15 20:57:55;;;;;;;0.80;0.63;;;;;;;15.57;100.00;101617.72;10431228;28;20045;-79
2023/05/15 21:02:57;;;;;;;2.33;0.50;;;;;;;15.38;100.00;101622.63;10429169;28;20080;-80
2023/05/15 21:07:58;;;;;;;0.20;0.20;;;;;;;15.27;100.00;101637.13;10439476;28;20087;-80
2023/05/15 21:13:00;;;;;;;1.85;0.57;;;;;;;14.96;100.00;101643.47;10429496;28;20045;-79
2023/05/15 21:18:02;;;;;;;0.98;0.85;;;;;;;14.35;100.00;101643.88;10434706;28;20037;-80
2023/05/15 21:23:04;;;;;;;0.75;0.52;;;;;;;14.34;100.00;101655.09;10425949;28;20099;-79
2023/05/15 21:28:06;;;;;;;0.40;0.38;;;;;;;14.60;100.00;101666.94;10450428;28;20045;-80
2023/05/15 21:33:08;;;;;;;0.52;0.30;;;;;;;14.33;100.00;101672.38;10438395;28;20408;-78
2023/05/15 21:38:10;;;;;;;0.98;0.35;;;;;;;14.65;100.00;101684.28;10449808;28;20099;-80
2023/05/15 21:43:11;;;;;;;0.93;0.28;;;;;;;14.54;100.00;101691.84;10427551;28;20492;-78
2023/05/15 21:48:13;;;;;;;0.63;0.20;;;;;;;14.55;100.00;101696.19;10414852;28;20037;-79
2023/05/15 21:53:16;;;;;;;0.05;0.05;;;;;;;14.78;100.00;101696.69;10415825;28;20053;-80
2023/05/15 21:58:17;;;;;;;0.00;0.00;;;;;;;14.15;100.00;101711.69;10429115;28;20064;-80
2023/05/15 22:03:19;;;;;;;0.17;0.10;;;;;;;14.57;100.00;101717.84;10433994;28;20273;-80
2023/05/15 22:08:21;;;;;;;1.17;0.15;;;;;;;14.03;100.00;101708.81;10433498;28;20140;-81
2023/05/15 22:13:23;;;;;;;0.00;0.00;;;;;;;14.06;100.00;101719.25;10440273;28;20102;-80
2023/05/15 22:18:28;;;;;;;0.22;0.20;;;;;;;13.92;100.00;101712.00;10432240;28;20037;-79
2023/05/15 22:23:31;;;;;;;0.73;0.25;;;;;;;14.06;100.00;101714.06;10430501;28;20080;-80
2023/05/15 22:28:32;;;;;;;0.10;0.10;;;;;;;14.02;100.00;101718.28;10432747;28;20126;-80
2023/05/15 22:33:34;;;;;;;0.20;0.05;;;;;;;14.03;100.00;101717.44;10434079;28;20044;-80
2023/05/15 22:38:38;;;;;;;0.22;0.22;;;;;;;13.73;100.00;101712.38;10433859;28;20120;-80
2023/05/15 22:43:39;;;;;;;0.00;0.00;;;;;;;14.13;100.00;101723.72;10437859;28;20072;-81
2023/05/15 22:48:41;;;;;;;0.38;0.13;;;;;;;13.79;100.00;101743.63;10415449;28;20052;-81
2023/05/15 22:53:45;;;;;;;0.22;0.20;;;;;;;13.88;100.00;101743.88;10438510;28;20052;-80
2023/05/15 22:58:50;;;;;;;0.00;0.00;;;;;;;13.73;100.00;101748.66;10422001;28;20077;-80
2023/05/15 23:03:51;;;;;;;0.28;0.13;;;;;;;14.18;100.00;101750.66;10455017;28;20047;-82